Portada
METAR-TAF:

METAR-TAF

Aeroports :

Aktau, Kazakhstan

latitud: 43-52-12N, longitud: 051-06E, altitud: 22 m

Observació

L'informe es va fer fa 37 minuts, a les 00:30 UTC
Vent 14 kt del Est/Nord-Est
Temperatura -12°C
Humitat 78%
Pressió 1033 hPa
Visibilitat 10 km o més
sense núvols per sota de 1500 mi sense presència de cumulonimbus.

METAR: UATE 060030Z 07007MPS CAVOK M12/M15 Q1033 R12/0///70 NOSIG RMK QFE773/1030

Hora: 06:07 (01:07 UTC)

Pronòstic

L'informe es va fer fa 2 hores i 6 minuts, a les 23:01 UTC
Pronòstic vàlid del 06 a les 00 UTC al 06 a les 24 UTC
Vent 12 kt del Est/Nord-Est
Visibilitat 10 km o més
sense núvols per sota de 1500 mi sense presència de cumulonimbus.
Evolucionant progressivament
l' 06 a les 03 UTC al 06 a les 05 UTC
Vent 12 kt del Est amb ràfegues de 23 kt

TAF: UATE 052301Z 0600/0624 07006MPS CAVOK TXM02/0611Z TNM13/0604Z BECMG 0603/0605 09006G12MPS

Observacions i pronòstics meteorològics de més de 4000 aeroports (METAR i TAF).

Les estacions disponibles són els punts grocs i vermells al mapa.

Posi el ratolí al punt desitjat per veure el nom de l'estació.

Feu clic per veure les observacions i els pronòstics meteorològics.

Per canviar el mapa: feu clic els botons verds amb una creu de color negre per apropar; al botó verd amb un guió per allunyar la imatge; o en les fletxes verdes per a mapes adjacents.


METAR-TAF: